createdAt,value
2018-12-13T00:01:07.459Z,4.59
2018-12-13T00:03:35.772Z,4.61
2018-12-13T00:06:04.083Z,4.62
2018-12-13T00:08:32.398Z,4.59
2018-12-13T00:11:00.713Z,4.55
2018-12-13T00:13:29.027Z,4.53
2018-12-13T00:15:57.341Z,4.51
2018-12-13T00:18:25.652Z,4.51
2018-12-13T00:20:53.989Z,4.51
2018-12-13T00:23:22.297Z,4.50
2018-12-13T00:25:50.627Z,4.50
2018-12-13T00:28:18.951Z,4.49
2018-12-13T00:30:47.275Z,4.50
2018-12-13T00:33:15.591Z,4.51
2018-12-13T00:35:43.901Z,4.53
2018-12-13T00:38:12.225Z,4.52
2018-12-13T00:40:40.547Z,4.50
2018-12-13T00:43:08.862Z,4.48
2018-12-13T00:45:37.183Z,4.47
2018-12-13T00:48:05.496Z,4.48
2018-12-13T00:50:33.808Z,4.48
2018-12-13T00:53:02.133Z,4.46
2018-12-13T00:55:30.447Z,4.47
2018-12-13T00:57:58.765Z,4.47
2018-12-13T01:00:27.081Z,4.45
2018-12-13T01:02:55.407Z,4.47
2018-12-13T01:05:23.703Z,4.48
2018-12-13T01:07:52.018Z,4.49
2018-12-13T01:10:20.345Z,4.51
2018-12-13T01:12:48.664Z,4.53
2018-12-13T01:15:16.976Z,4.53
2018-12-13T01:17:45.287Z,4.52
2018-12-13T01:20:13.618Z,4.53
2018-12-13T01:22:41.936Z,4.55
2018-12-13T01:25:10.250Z,4.55
2018-12-13T01:27:38.565Z,4.56
2018-12-13T01:30:06.879Z,4.56
2018-12-13T01:32:35.207Z,4.56
2018-12-13T01:35:03.509Z,4.55
2018-12-13T01:37:31.891Z,4.54
2018-12-13T01:40:00.168Z,4.53
2018-12-13T01:42:28.487Z,4.50
2018-12-13T01:44:56.798Z,4.50
2018-12-13T01:47:25.107Z,4.50
2018-12-13T01:49:53.425Z,4.51
2018-12-13T01:52:21.752Z,4.47
2018-12-13T01:54:50.290Z,4.40
2018-12-13T01:57:18.378Z,4.30
2018-12-13T01:59:46.694Z,4.25
2018-12-13T02:02:15.007Z,4.20
2018-12-13T02:04:43.314Z,4.17
2018-12-13T02:07:11.629Z,4.14
2018-12-13T02:09:39.940Z,4.12
2018-12-13T02:12:08.250Z,4.13
2018-12-13T02:14:36.559Z,4.11
2018-12-13T02:17:04.869Z,4.10
2018-12-13T02:19:33.188Z,4.07
2018-12-13T02:22:01.511Z,4.06
2018-12-13T02:24:29.828Z,4.07
2018-12-13T02:26:58.149Z,4.10
2018-12-13T02:29:26.472Z,4.10
2018-12-13T02:31:54.789Z,4.10
2018-12-13T02:34:23.102Z,4.09
2018-12-13T02:36:51.408Z,4.12
2018-12-13T02:39:19.717Z,4.15
2018-12-13T02:41:48.051Z,4.16
2018-12-13T02:44:16.367Z,4.14
2018-12-13T02:46:44.691Z,4.10
2018-12-13T02:49:13.001Z,4.03
2018-12-13T02:51:41.313Z,3.95
2018-12-13T02:54:09.631Z,3.85
2018-12-13T02:56:37.946Z,3.80
2018-12-13T02:59:06.262Z,3.78
2018-12-13T03:01:34.579Z,3.77
2018-12-13T03:04:02.898Z,3.77
2018-12-13T03:06:31.215Z,3.77
2018-12-13T03:08:59.537Z,3.78
2018-12-13T03:11:27.858Z,3.78
2018-12-13T03:13:56.167Z,3.78
2018-12-13T03:16:24.538Z,3.80
2018-12-13T03:18:52.790Z,3.81
2018-12-13T03:21:21.101Z,3.82
2018-12-13T03:23:49.436Z,3.83
2018-12-13T03:26:17.742Z,3.84
2018-12-13T03:28:46.066Z,3.84
2018-12-13T03:31:14.380Z,3.77
2018-12-13T03:33:42.694Z,3.72
2018-12-13T03:36:11.055Z,3.69
2018-12-13T03:38:39.343Z,3.69
2018-12-13T03:41:07.653Z,3.73
2018-12-13T03:43:35.996Z,3.79
2018-12-13T03:46:04.322Z,3.83
2018-12-13T03:48:32.626Z,3.87
2018-12-13T03:51:00.941Z,3.90
2018-12-13T03:53:29.265Z,3.91
2018-12-13T03:55:57.579Z,3.89
2018-12-13T03:58:25.906Z,3.85
2018-12-13T04:00:54.218Z,3.80
2018-12-13T04:03:22.533Z,3.78
2018-12-13T04:05:50.840Z,3.78
2018-12-13T04:08:19.174Z,3.78
2018-12-13T04:10:47.488Z,3.78
2018-12-13T04:13:15.803Z,3.78
2018-12-13T04:15:44.134Z,3.78
2018-12-13T04:18:12.468Z,3.79
2018-12-13T04:20:40.788Z,3.78
2018-12-13T04:23:09.110Z,3.79
2018-12-13T04:25:37.431Z,3.81
2018-12-13T04:28:05.749Z,3.83
2018-12-13T04:30:34.065Z,3.83
2018-12-13T04:33:02.383Z,3.81
2018-12-13T04:35:30.713Z,3.77
2018-12-13T04:37:59.027Z,3.70
2018-12-13T04:40:27.351Z,3.68
2018-12-13T04:42:55.876Z,3.67
2018-12-13T04:45:23.998Z,3.66
2018-12-13T04:47:52.327Z,3.65
2018-12-13T04:50:20.661Z,3.66
2018-12-13T04:52:48.975Z,3.63
2018-12-13T04:55:17.295Z,3.62
2018-12-13T04:57:45.608Z,3.60
2018-12-13T05:00:13.917Z,3.60
2018-12-13T05:02:42.238Z,3.60
2018-12-13T05:05:10.574Z,3.62
2018-12-13T05:07:41.762Z,3.65
2018-12-13T05:10:07.215Z,3.67
2018-12-13T05:12:35.536Z,3.66
2018-12-13T05:15:03.859Z,3.69
2018-12-13T05:17:32.200Z,3.72
2018-12-13T05:20:00.531Z,3.75
2018-12-13T05:22:28.860Z,3.78
2018-12-13T05:24:57.191Z,3.79
2018-12-13T05:27:25.855Z,3.79
2018-12-13T05:29:54.183Z,3.81
2018-12-13T05:32:22.507Z,3.81
2018-12-13T05:34:50.819Z,3.81
2018-12-13T05:37:19.132Z,3.78
2018-12-13T05:39:47.458Z,3.79
2018-12-13T05:42:15.806Z,3.78
2018-12-13T05:44:44.118Z,3.76
2018-12-13T05:47:12.459Z,3.75
2018-12-13T05:49:40.810Z,3.73
2018-12-13T05:52:09.115Z,3.71
2018-12-13T05:54:37.444Z,3.69
2018-12-13T05:57:05.774Z,3.67
2018-12-13T05:59:34.085Z,3.66
2018-12-13T06:02:02.401Z,3.66
2018-12-13T06:04:30.725Z,3.68
2018-12-13T06:06:59.031Z,3.66
2018-12-13T06:09:27.345Z,3.67
2018-12-13T06:11:55.668Z,3.67
2018-12-13T06:14:23.994Z,3.69
2018-12-13T06:16:52.326Z,3.70
2018-12-13T06:19:26.584Z,3.71
2018-12-13T06:21:48.979Z,3.73
2018-12-13T06:24:17.301Z,3.74
2018-12-13T06:26:45.610Z,3.78
2018-12-13T06:29:14.226Z,3.83
2018-12-13T06:31:42.541Z,3.92
2018-12-13T06:34:11.128Z,3.97
2018-12-13T06:36:39.457Z,3.98
2018-12-13T06:39:07.784Z,3.98
2018-12-13T06:41:36.103Z,4.07
2018-12-13T06:44:04.413Z,4.05
2018-12-13T06:46:32.730Z,4.02
2018-12-13T06:49:01.101Z,4.01
2018-12-13T06:51:29.415Z,3.99
2018-12-13T06:53:57.756Z,3.99
2018-12-13T06:56:26.066Z,3.96
2018-12-13T06:58:54.977Z,3.93
2018-12-13T07:01:23.292Z,3.94
2018-12-13T07:03:51.608Z,3.93
2018-12-13T07:06:19.915Z,3.93
2018-12-13T07:08:54.004Z,3.94
2018-12-13T07:11:22.327Z,3.94
2018-12-13T07:13:50.644Z,3.94
2018-12-13T07:16:18.966Z,3.92
2018-12-13T07:18:47.283Z,3.92
2018-12-13T07:21:15.604Z,3.94
2018-12-13T07:23:43.922Z,3.95
2018-12-13T07:26:12.248Z,3.97
2018-12-13T07:28:40.577Z,3.97
2018-12-13T07:31:08.894Z,3.97
2018-12-13T07:33:37.212Z,3.95
2018-12-13T07:36:05.545Z,3.95
2018-12-13T07:38:33.877Z,3.97
2018-12-13T07:41:02.836Z,3.97
2018-12-13T07:43:31.401Z,3.97
2018-12-13T07:45:59.720Z,3.91
2018-12-13T07:48:28.039Z,3.87
2018-12-13T07:50:56.409Z,3.83
2018-12-13T07:53:24.735Z,3.74
2018-12-13T07:55:53.397Z,3.62
2018-12-13T07:58:21.724Z,3.53
2018-12-13T08:00:50.204Z,3.49
2018-12-13T08:03:18.519Z,3.45
2018-12-13T08:05:46.838Z,3.42
2018-12-13T08:08:20.647Z,3.42
2018-12-13T08:10:43.470Z,3.44
2018-12-13T08:13:12.302Z,3.46
2018-12-13T08:15:40.622Z,3.49
2018-12-13T08:18:08.968Z,3.54
2018-12-13T08:20:37.281Z,3.60
2018-12-13T08:23:05.597Z,3.67
2018-12-13T08:25:33.934Z,3.74
2018-12-13T08:28:02.248Z,3.78
2018-12-13T08:30:30.563Z,3.79
2018-12-13T08:32:58.944Z,3.77
2018-12-13T08:35:27.278Z,3.76
2018-12-13T08:37:55.596Z,3.73
2018-12-13T08:40:23.904Z,3.73
2018-12-13T08:42:52.220Z,3.73
2018-12-13T08:45:20.532Z,3.72
2018-12-13T08:47:48.856Z,3.72
2018-12-13T08:50:17.463Z,3.70
2018-12-13T08:52:46.514Z,3.63
2018-12-13T08:55:14.831Z,3.57
2018-12-13T08:57:43.160Z,3.53
2018-12-13T09:00:11.485Z,3.50
2018-12-13T09:02:39.796Z,3.53
2018-12-13T09:05:08.125Z,3.54
2018-12-13T09:07:36.458Z,3.55
2018-12-13T09:10:04.782Z,3.55
2018-12-13T09:12:33.096Z,3.57
2018-12-13T09:15:01.409Z,3.61
2018-12-13T09:17:29.731Z,3.67
2018-12-13T09:19:58.044Z,3.73
2018-12-13T09:22:26.367Z,3.78
2018-12-13T09:24:54.680Z,3.79
2018-12-13T09:27:23.005Z,3.73
2018-12-13T09:29:51.320Z,3.69
2018-12-13T09:32:19.652Z,3.68
2018-12-13T09:34:47.957Z,3.67
2018-12-13T09:37:16.277Z,3.67
2018-12-13T09:39:44.612Z,3.65
2018-12-13T09:42:13.854Z,3.66
2018-12-13T09:44:42.182Z,3.67
2018-12-13T09:47:10.790Z,3.68
2018-12-13T09:49:39.128Z,3.70
2018-12-13T09:52:07.786Z,3.71
2018-12-13T09:54:36.118Z,3.68
2018-12-13T09:57:04.428Z,3.62
2018-12-13T09:59:32.741Z,3.60
2018-12-13T10:02:01.062Z,3.58
2018-12-13T10:04:29.384Z,3.55
2018-12-13T10:06:57.707Z,3.56
2018-12-13T10:09:26.017Z,3.58
2018-12-13T10:11:54.343Z,3.59
2018-12-13T10:14:23.065Z,3.62
2018-12-13T10:16:51.513Z,3.63
2018-12-13T10:19:19.830Z,3.66
2018-12-13T10:21:48.159Z,3.68
2018-12-13T10:24:16.475Z,3.67
2018-12-13T10:26:44.791Z,3.65
2018-12-13T10:29:13.119Z,3.64
2018-12-13T10:31:41.687Z,3.64
2018-12-13T10:34:10.001Z,3.64
2018-12-13T10:36:38.330Z,3.63
2018-12-13T10:39:06.656Z,3.62
2018-12-13T10:41:34.974Z,3.62
2018-12-13T10:44:03.304Z,3.59
2018-12-13T10:46:31.621Z,3.59
2018-12-13T10:48:59.938Z,3.57
2018-12-13T10:51:28.268Z,3.57
2018-12-13T10:53:56.599Z,3.53
2018-12-13T10:56:24.937Z,3.52
2018-12-13T10:58:53.254Z,3.51
2018-12-13T11:01:27.119Z,3.54
2018-12-13T11:03:56.012Z,3.55
2018-12-13T11:06:24.336Z,3.56
2018-12-13T11:08:52.657Z,3.57
2018-12-13T11:11:20.975Z,3.56
2018-12-13T11:13:49.577Z,3.59
2018-12-13T11:16:17.904Z,3.60
2018-12-13T11:18:46.220Z,3.58
2018-12-13T11:21:17.504Z,3.58
2018-12-13T11:23:42.861Z,3.58
2018-12-13T11:26:11.187Z,3.61
2018-12-13T11:28:45.271Z,3.62
2018-12-13T11:31:13.848Z,3.64
2018-12-13T11:33:42.166Z,3.63
2018-12-13T11:36:10.486Z,3.63
2018-12-13T11:38:38.806Z,3.62
2018-12-13T11:41:07.117Z,3.65
2018-12-13T11:43:35.442Z,3.68
2018-12-13T11:46:03.758Z,3.67
2018-12-13T11:48:32.093Z,3.69
2018-12-13T11:51:00.416Z,3.74
2018-12-13T11:53:28.743Z,3.78
2018-12-13T11:55:57.057Z,3.81
2018-12-13T11:58:25.485Z,3.83
2018-12-13T12:00:53.799Z,3.86
2018-12-13T12:03:22.430Z,3.88
2018-12-13T12:05:50.744Z,3.90
2018-12-13T12:08:19.394Z,3.90
2018-12-13T12:10:47.727Z,3.92
2018-12-13T12:13:16.164Z,3.94
2018-12-13T12:15:44.501Z,3.91
2018-12-13T12:18:13.114Z,3.85
2018-12-13T12:20:41.431Z,3.77
2018-12-13T12:23:09.761Z,3.65
2018-12-13T12:25:38.074Z,3.60
2018-12-13T12:28:06.400Z,3.54
2018-12-13T12:30:34.717Z,3.50
2018-12-13T12:33:03.039Z,3.47
2018-12-13T12:35:31.373Z,3.45
2018-12-13T12:37:59.678Z,3.42
2018-12-13T12:40:27.995Z,3.41
2018-12-13T12:42:56.611Z,3.41
2018-12-13T12:45:25.138Z,3.43
2018-12-13T12:47:53.511Z,3.42
2018-12-13T12:50:21.828Z,3.45
2018-12-13T12:52:50.450Z,3.45
2018-12-13T12:55:18.768Z,3.47
2018-12-13T12:57:47.098Z,3.47
2018-12-13T13:00:15.925Z,3.47
2018-12-13T13:02:45.605Z,3.46
2018-12-13T13:05:12.593Z,3.46
2018-12-13T13:07:40.919Z,3.47
2018-12-13T13:10:09.539Z,3.48
2018-12-13T13:12:37.624Z,3.47
2018-12-13T13:15:05.957Z,3.50
2018-12-13T13:17:37.368Z,3.50
2018-12-13T13:20:05.794Z,3.47
2018-12-13T13:22:34.101Z,3.36
2018-12-13T13:25:03.912Z,3.20
2018-12-13T13:27:32.013Z,3.06
2018-12-13T13:30:00.183Z,2.96
2018-12-13T13:32:28.653Z,2.86
2018-12-13T13:34:56.984Z,2.79
2018-12-13T13:37:25.320Z,2.75
2018-12-13T13:39:53.651Z,2.69
2018-12-13T13:42:21.958Z,2.66
2018-12-13T13:44:50.278Z,2.65
2018-12-13T13:47:18.601Z,2.66
2018-12-13T13:49:46.942Z,2.65
2018-12-13T13:52:15.276Z,2.67
2018-12-13T13:54:43.598Z,2.72
2018-12-13T13:57:11.918Z,2.75
2018-12-13T13:59:40.987Z,2.81
2018-12-13T14:02:09.323Z,2.85
2018-12-13T14:04:37.663Z,2.87
2018-12-13T14:07:05.982Z,2.92
2018-12-13T14:09:37.874Z,2.95
2018-12-13T14:12:03.002Z,2.99
2018-12-13T14:14:31.616Z,3.00
2018-12-13T14:17:00.109Z,3.01
2018-12-13T14:19:29.446Z,3.01
2018-12-13T14:21:57.546Z,3.01
2018-12-13T14:24:25.865Z,3.03
2018-12-13T14:26:54.201Z,3.06
2018-12-13T14:29:22.545Z,3.08
2018-12-13T14:31:50.882Z,3.09
2018-12-13T14:34:19.484Z,3.11
2018-12-13T14:36:47.814Z,3.12
2018-12-13T14:39:16.159Z,3.12
2018-12-13T14:41:44.509Z,3.12
2018-12-13T14:44:12.831Z,3.11
2018-12-13T14:46:41.183Z,3.12
2018-12-13T14:49:09.502Z,3.11
2018-12-13T14:51:38.135Z,3.09
2018-12-13T14:54:06.497Z,3.10
2018-12-13T14:56:35.745Z,3.12
2018-12-13T14:59:04.086Z,3.15
2018-12-13T15:01:32.417Z,3.14
2018-12-13T15:04:00.926Z,3.16
2018-12-13T15:06:29.283Z,3.17
2018-12-13T15:08:57.612Z,3.18
2018-12-13T15:11:25.951Z,3.20
2018-12-13T15:13:54.280Z,3.20
2018-12-13T15:16:22.633Z,3.21
2018-12-13T15:18:50.974Z,3.26
2018-12-13T15:21:19.330Z,3.29
2018-12-13T15:23:47.666Z,3.31
2018-12-13T15:26:16.022Z,3.33
2018-12-13T15:28:44.407Z,3.34
2018-12-13T15:31:12.921Z,3.35
2018-12-13T15:33:41.442Z,3.37
2018-12-13T15:36:09.766Z,3.36
2018-12-13T15:38:38.404Z,3.38
2018-12-13T15:41:07.535Z,3.40
2018-12-13T15:43:35.872Z,3.41
2018-12-13T15:46:04.212Z,3.41
2018-12-13T15:48:32.548Z,3.42
2018-12-13T15:51:00.875Z,3.42
2018-12-13T15:53:29.204Z,3.42
2018-12-13T15:55:57.560Z,3.41
2018-12-13T15:58:26.163Z,3.42
2018-12-13T16:00:54.484Z,3.42
2018-12-13T16:03:22.823Z,3.42
2018-12-13T16:05:51.192Z,3.39
2018-12-13T16:08:19.529Z,3.38
2018-12-13T16:10:47.945Z,3.34
2018-12-13T16:13:16.338Z,3.28
2018-12-13T16:15:44.611Z,3.24
2018-12-13T16:18:13.216Z,3.23
2018-12-13T16:20:41.900Z,3.21
2018-12-13T16:23:10.223Z,3.21
2018-12-13T16:25:38.870Z,3.22
2018-12-13T16:28:07.867Z,3.23
2018-12-13T16:30:36.211Z,3.22
2018-12-13T16:33:04.568Z,3.24
2018-12-13T16:35:32.891Z,3.25
2018-12-13T16:38:01.230Z,3.24
2018-12-13T16:40:29.554Z,3.21
2018-12-13T16:42:57.879Z,3.18
2018-12-13T16:45:26.220Z,3.18
2018-12-13T16:47:54.597Z,3.16
2018-12-13T16:50:22.922Z,3.17
2018-12-13T16:52:51.254Z,3.15
2018-12-13T16:55:19.662Z,3.13
2018-12-13T16:57:47.997Z,3.12
2018-12-13T17:00:16.314Z,3.09
2018-12-13T17:02:44.633Z,3.08
2018-12-13T17:05:12.985Z,3.06
2018-12-13T17:07:41.369Z,3.07
2018-12-13T17:10:09.743Z,3.06
2018-12-13T17:12:38.092Z,3.04
2018-12-13T17:15:06.542Z,3.03
2018-12-13T17:17:34.856Z,3.03
2018-12-13T17:20:03.191Z,3.02
2018-12-13T17:22:31.546Z,3.02
2018-12-13T17:25:00.166Z,3.01
2018-12-13T17:27:28.484Z,2.97
2018-12-13T17:29:57.054Z,2.93
2018-12-13T17:32:25.150Z,2.89
2018-12-13T17:34:53.492Z,2.88
2018-12-13T17:37:22.114Z,2.88
2018-12-13T17:39:50.438Z,2.87
2018-12-13T17:42:18.805Z,2.86
2018-12-13T17:44:47.173Z,2.83
2018-12-13T17:47:15.561Z,2.83
2018-12-13T17:49:49.264Z,2.83
2018-12-13T17:52:23.026Z,2.85
2018-12-13T17:54:51.354Z,2.86
2018-12-13T17:57:19.705Z,2.84
2018-12-13T17:59:48.022Z,2.81
2018-12-13T18:02:16.357Z,2.78
2018-12-13T18:04:44.676Z,2.78
2018-12-13T18:07:13.009Z,2.78
2018-12-13T18:09:41.340Z,2.77
2018-12-13T18:12:09.677Z,2.76
2018-12-13T18:14:38.005Z,2.78
2018-12-13T18:17:06.376Z,2.79
2018-12-13T18:19:35.949Z,2.80
2018-12-13T18:22:06.496Z,2.80
2018-12-13T18:24:33.761Z,2.78
2018-12-13T18:27:01.863Z,2.80
2018-12-13T18:29:30.200Z,2.81
2018-12-13T18:31:58.518Z,2.81
2018-12-13T18:34:26.829Z,2.79
2018-12-13T18:36:55.852Z,2.75
2018-12-13T18:39:24.221Z,2.72
2018-12-13T18:41:52.537Z,2.74
2018-12-13T18:44:20.932Z,2.73
2018-12-13T18:46:49.296Z,2.70
2018-12-13T18:49:17.657Z,2.67
2018-12-13T18:51:46.048Z,2.67
2018-12-13T18:54:14.361Z,2.66
2018-12-13T18:56:42.677Z,2.64
2018-12-13T18:59:11.289Z,2.63
2018-12-13T19:01:39.619Z,2.64
2018-12-13T19:04:08.225Z,2.64
2018-12-13T19:06:36.568Z,2.64
2018-12-13T19:09:04.887Z,2.65
2018-12-13T19:11:35.907Z,2.66
2018-12-13T19:14:03.358Z,2.64
2018-12-13T19:16:32.692Z,2.65
2018-12-13T19:19:02.420Z,2.66
2018-12-13T19:21:30.750Z,2.65
2018-12-13T19:24:01.982Z,2.63
2018-12-13T19:26:30.537Z,2.61
2018-12-13T19:28:58.682Z,2.55
2018-12-13T19:31:27.008Z,2.54
2018-12-13T19:33:55.380Z,2.53
2018-12-13T19:36:23.726Z,2.52
2018-12-13T19:38:52.487Z,2.51
2018-12-13T19:41:21.392Z,2.52
2018-12-13T19:43:49.727Z,2.51
2018-12-13T19:46:18.079Z,2.53
2018-12-13T19:48:46.397Z,2.53
2018-12-13T19:51:14.754Z,2.54
2018-12-13T19:53:43.082Z,2.54
2018-12-13T19:56:11.385Z,2.51
2018-12-13T19:58:39.715Z,2.51
2018-12-13T20:01:08.984Z,2.46
2018-12-13T20:03:37.335Z,2.44
2018-12-13T20:06:05.677Z,2.43
2018-12-13T20:08:33.989Z,2.41
2018-12-13T20:11:03.149Z,2.40
2018-12-13T20:13:31.639Z,2.39
2018-12-13T20:16:00.017Z,2.38
2018-12-13T20:18:28.598Z,2.38
2018-12-13T20:20:57.080Z,2.38
2018-12-13T20:23:26.426Z,2.36
2018-12-13T20:25:55.340Z,2.34
2018-12-13T20:28:23.748Z,2.32
2018-12-13T20:30:52.153Z,2.29
2018-12-13T20:33:22.167Z,2.27
2018-12-13T20:35:50.859Z,2.25
2018-12-13T20:38:19.802Z,2.21
2018-12-13T20:40:49.217Z,2.18
2018-12-13T20:43:17.639Z,2.19
2018-12-13T20:45:46.695Z,2.20
2018-12-13T20:48:15.027Z,2.20
2018-12-13T20:50:44.526Z,2.20
2018-12-13T20:53:12.900Z,2.21
2018-12-13T20:55:44.220Z,2.24
2018-12-13T20:58:12.325Z,2.25
2018-12-13T21:00:40.642Z,2.28
2018-12-13T21:03:08.970Z,2.27
2018-12-13T21:05:37.301Z,2.31
2018-12-13T21:08:13.781Z,2.34
2018-12-13T21:10:40.776Z,2.32
2018-12-13T21:13:09.399Z,2.31
2018-12-13T21:15:37.839Z,2.32
2018-12-13T21:18:06.165Z,2.35
2018-12-13T21:20:34.491Z,2.37
2018-12-13T21:23:02.864Z,2.35
2018-12-13T21:25:32.234Z,2.37
2018-12-13T21:28:01.509Z,2.40
2018-12-13T21:30:29.838Z,2.44
2018-12-13T21:32:58.561Z,2.47
2018-12-13T21:35:26.882Z,2.51
2018-12-13T21:37:55.211Z,2.51
2018-12-13T21:40:23.548Z,2.51
2018-12-13T21:42:51.866Z,2.52
2018-12-13T21:45:20.246Z,2.56
2018-12-13T21:47:49.306Z,2.55
2018-12-13T21:50:17.696Z,2.57
2018-12-13T21:52:46.119Z,2.54
2018-12-13T21:55:14.462Z,2.49
2018-12-13T21:57:43.128Z,2.46
2018-12-13T22:00:11.426Z,2.43
2018-12-13T22:02:39.796Z,2.41
2018-12-13T22:05:08.156Z,2.38
2018-12-13T22:07:36.580Z,2.38
2018-12-13T22:10:04.918Z,2.39
2018-12-13T22:12:33.264Z,2.41
2018-12-13T22:15:02.614Z,2.43
2018-12-13T22:17:30.007Z,2.45
2018-12-13T22:19:58.345Z,2.45
2018-12-13T22:22:26.670Z,2.46
2018-12-13T22:24:55.801Z,2.46
2018-12-13T22:27:24.128Z,2.48
2018-12-13T22:29:53.132Z,2.50
2018-12-13T22:32:22.367Z,2.49
2018-12-13T22:34:50.679Z,2.50
2018-12-13T22:37:19.040Z,2.47
2018-12-13T22:39:47.361Z,2.45
2018-12-13T22:42:15.695Z,2.37
2018-12-13T22:44:44.030Z,2.29
2018-12-13T22:47:12.354Z,2.31
2018-12-13T22:49:40.666Z,2.37
2018-12-13T22:52:09.001Z,2.43
2018-12-13T22:54:37.333Z,2.47
2018-12-13T22:57:05.651Z,2.46
2018-12-13T22:59:33.987Z,2.43
2018-12-13T23:02:02.310Z,2.40
2018-12-13T23:04:30.657Z,2.37
2018-12-13T23:06:58.972Z,2.40
2018-12-13T23:09:27.298Z,2.45
2018-12-13T23:11:55.623Z,2.48
2018-12-13T23:14:23.945Z,2.48
2018-12-13T23:16:52.282Z,2.41
2018-12-13T23:19:20.631Z,2.34
2018-12-13T23:21:48.947Z,2.29
2018-12-13T23:24:17.276Z,2.23
2018-12-13T23:26:45.600Z,2.22
2018-12-13T23:29:13.926Z,2.19
2018-12-13T23:31:42.259Z,2.17
2018-12-13T23:34:10.610Z,2.11
2018-12-13T23:36:38.890Z,2.08
2018-12-13T23:39:07.218Z,2.10
2018-12-13T23:41:39.148Z,2.10
2018-12-13T23:44:03.881Z,2.09
2018-12-13T23:46:32.194Z,2.10
2018-12-13T23:49:00.523Z,2.11
2018-12-13T23:51:28.854Z,2.14
2018-12-13T23:53:57.174Z,2.18
2018-12-13T23:56:25.484Z,2.21
2018-12-13T23:58:53.800Z,2.23
